createdAt,value
2022-07-30T00:01:37.627Z,18.24
2022-07-30T00:03:39.446Z,18.13
2022-07-30T00:05:41.382Z,18.34
2022-07-30T00:07:43.155Z,18.33
2022-07-30T00:09:44.900Z,18.37
2022-07-30T00:11:46.927Z,18.40
2022-07-30T00:13:48.730Z,18.41
2022-07-30T00:15:50.497Z,18.38
2022-07-30T00:17:52.347Z,18.40
2022-07-30T00:19:54.097Z,18.29
2022-07-30T00:21:57.989Z,18.15
2022-07-30T00:24:01.600Z,18.32
2022-07-30T00:26:03.907Z,18.48
2022-07-30T00:28:05.937Z,18.23
2022-07-30T00:30:08.704Z,18.46
2022-07-30T00:32:10.437Z,18.29
2022-07-30T00:34:12.213Z,18.47
2022-07-30T00:36:14.170Z,18.48
2022-07-30T00:38:15.868Z,18.40
2022-07-30T00:40:18.098Z,18.57
2022-07-30T00:42:20.158Z,18.57
2022-07-30T00:44:22.085Z,18.50
2022-07-30T00:46:24.052Z,18.58
2022-07-30T00:48:25.925Z,18.59
2022-07-30T00:50:27.753Z,18.36
2022-07-30T00:52:29.572Z,18.47
2022-07-30T00:54:32.206Z,18.46
2022-07-30T00:56:33.903Z,18.38
2022-07-30T00:58:35.744Z,18.40
2022-07-30T01:00:37.811Z,18.23
2022-07-30T01:02:39.882Z,18.23
2022-07-30T01:04:41.661Z,18.23
2022-07-30T01:06:43.605Z,18.42
2022-07-30T01:08:45.425Z,18.29
2022-07-30T01:10:47.175Z,18.13
2022-07-30T01:12:49.261Z,18.19
2022-07-30T01:14:51.082Z,18.28
2022-07-30T01:16:52.919Z,18.07
2022-07-30T01:18:58.142Z,18.23
2022-07-30T01:21:09.687Z,18.14
2022-07-30T01:23:31.570Z,18.02
2022-07-30T01:25:55.595Z,18.08
2022-07-30T01:28:01.996Z,18.01
2022-07-30T01:30:05.839Z,17.99
2022-07-30T01:32:09.078Z,17.95
2022-07-30T01:34:13.142Z,17.93
2022-07-30T01:36:18.242Z,17.76
2022-07-30T01:38:22.985Z,17.75
2022-07-30T01:40:27.522Z,17.93
2022-07-30T01:42:30.117Z,17.79
2022-07-30T01:44:33.280Z,17.86
2022-07-30T01:46:35.373Z,17.93
2022-07-30T01:48:41.296Z,17.80
2022-07-30T01:50:45.880Z,17.66
2022-07-30T01:52:50.251Z,17.83
2022-07-30T01:54:56.469Z,17.84
2022-07-30T01:57:01.751Z,17.74
2022-07-30T01:59:07.814Z,17.73
2022-07-30T02:01:09.702Z,17.79
2022-07-30T02:03:12.088Z,17.85
2022-07-30T02:05:14.087Z,17.81
2022-07-30T02:07:24.606Z,17.82
2022-07-30T02:09:34.468Z,17.57
2022-07-30T02:11:47.616Z,17.64
2022-07-30T02:13:54.780Z,17.48
2022-07-30T02:16:18.251Z,17.59
2022-07-30T02:18:40.575Z,17.74
2022-07-30T02:20:51.689Z,17.43
2022-07-30T02:22:57.418Z,17.67
2022-07-30T02:25:01.713Z,17.35
2022-07-30T02:27:08.792Z,17.66
2022-07-30T02:29:11.783Z,17.68
2022-07-30T02:31:18.034Z,17.63
2022-07-30T02:33:24.200Z,17.66
2022-07-30T02:35:29.804Z,17.76
2022-07-30T02:37:43.707Z,17.84
2022-07-30T02:39:46.321Z,17.68
2022-07-30T02:41:50.295Z,17.65
2022-07-30T02:43:54.103Z,17.77
2022-07-30T02:45:57.121Z,17.86
2022-07-30T02:48:02.330Z,17.86
2022-07-30T02:50:06.967Z,17.84
2022-07-30T02:52:12.116Z,17.94
2022-07-30T02:54:16.594Z,18.04
2022-07-30T02:56:21.394Z,17.95
2022-07-30T02:58:25.771Z,18.15
2022-07-30T03:00:29.733Z,18.28
2022-07-30T03:02:33.741Z,18.40
2022-07-30T03:04:37.988Z,18.31
2022-07-30T03:06:41.935Z,18.50
2022-07-30T03:08:45.477Z,18.50
2022-07-30T03:10:48.481Z,18.53
2022-07-30T03:12:51.063Z,18.62
2022-07-30T03:14:52.872Z,18.58
2022-07-30T03:16:58.760Z,18.65
2022-07-30T03:19:02.299Z,18.59
2022-07-30T03:21:11.326Z,18.52
2022-07-30T03:23:16.763Z,18.68
2022-07-30T03:25:24.602Z,18.53
2022-07-30T03:27:27.147Z,18.66
2022-07-30T03:29:31.433Z,18.68
2022-07-30T03:31:37.775Z,18.67
2022-07-30T03:33:40.916Z,18.66
2022-07-30T03:35:43.911Z,18.53
2022-07-30T03:37:47.118Z,18.40
2022-07-30T03:39:48.999Z,18.60
2022-07-30T03:41:51.831Z,18.47
2022-07-30T03:43:56.575Z,18.49
2022-07-30T03:45:59.100Z,18.47
2022-07-30T03:48:01.651Z,18.34
2022-07-30T03:50:06.607Z,18.65
2022-07-30T03:52:09.658Z,18.69
2022-07-30T03:54:13.736Z,18.67
2022-07-30T03:56:15.879Z,18.80
2022-07-30T03:58:17.801Z,18.86
2022-07-30T04:00:19.622Z,18.99
2022-07-30T04:02:21.825Z,18.98
2022-07-30T04:04:23.595Z,19.16
2022-07-30T04:06:25.320Z,19.11
2022-07-30T04:08:28.349Z,18.95
2022-07-30T04:10:30.059Z,19.08
2022-07-30T04:12:32.133Z,19.04
2022-07-30T04:14:42.275Z,19.02
2022-07-30T04:16:54.959Z,18.89
2022-07-30T04:19:00.154Z,18.95
2022-07-30T04:21:06.014Z,19.07
2022-07-30T04:23:09.680Z,19.06
2022-07-30T04:25:12.147Z,18.96
2022-07-30T04:27:26.236Z,19.03
2022-07-30T04:29:28.108Z,19.09
2022-07-30T04:31:32.067Z,19.14
2022-07-30T04:33:45.237Z,19.00
2022-07-30T04:35:50.827Z,19.32
2022-07-30T04:37:54.162Z,19.22
2022-07-30T04:39:57.020Z,19.41
2022-07-30T04:41:58.769Z,19.40
2022-07-30T04:44:00.697Z,19.43
2022-07-30T04:46:03.359Z,19.42
2022-07-30T04:48:05.613Z,19.51
2022-07-30T04:50:09.058Z,19.49
2022-07-30T04:52:12.904Z,19.50
2022-07-30T04:54:16.352Z,19.69
2022-07-30T04:56:20.632Z,19.36
2022-07-30T04:58:23.188Z,19.56
2022-07-30T05:00:25.146Z,19.46
2022-07-30T05:02:29.924Z,19.65
2022-07-30T05:04:32.831Z,19.57
2022-07-30T05:06:35.706Z,19.58
2022-07-30T05:08:38.922Z,19.62
2022-07-30T05:10:40.979Z,19.67
2022-07-30T05:12:42.746Z,19.67
2022-07-30T05:14:48.228Z,19.60
2022-07-30T05:16:53.889Z,19.66
2022-07-30T05:18:55.789Z,19.79
2022-07-30T05:20:57.705Z,19.83
2022-07-30T05:22:59.523Z,19.66
2022-07-30T05:25:01.285Z,19.63
2022-07-30T05:27:03.491Z,19.62
2022-07-30T05:29:06.979Z,19.68
2022-07-30T05:31:09.269Z,19.67
2022-07-30T05:33:15.817Z,19.49
2022-07-30T05:35:18.327Z,19.70
2022-07-30T05:37:20.585Z,19.59
2022-07-30T05:39:25.325Z,19.96
2022-07-30T05:41:32.597Z,20.02
2022-07-30T05:43:35.036Z,20.01
2022-07-30T05:45:36.899Z,19.93
2022-07-30T05:47:38.848Z,19.88
2022-07-30T05:49:40.575Z,20.06
2022-07-30T05:51:44.218Z,20.06
2022-07-30T05:53:47.115Z,20.03
2022-07-30T05:55:48.850Z,19.99
2022-07-30T05:57:50.801Z,20.08
2022-07-30T05:59:53.020Z,20.12
2022-07-30T06:01:54.809Z,20.16
2022-07-30T06:03:56.710Z,20.16
2022-07-30T06:05:58.639Z,20.17
2022-07-30T06:08:00.499Z,20.09
2022-07-30T06:10:02.549Z,19.99
2022-07-30T06:12:05.162Z,19.92
2022-07-30T06:14:06.879Z,19.81
2022-07-30T06:16:08.788Z,20.01
2022-07-30T06:18:10.842Z,20.39
2022-07-30T06:20:13.812Z,20.31
2022-07-30T06:22:15.797Z,20.35
2022-07-30T06:24:17.600Z,20.50
2022-07-30T06:26:19.364Z,20.51
2022-07-30T06:28:37.514Z,20.70
2022-07-30T06:30:40.256Z,20.76
2022-07-30T06:32:42.144Z,20.57
2022-07-30T06:34:44.002Z,20.42
2022-07-30T06:36:45.840Z,20.61
2022-07-30T06:38:47.592Z,20.54
2022-07-30T06:40:49.959Z,20.52
2022-07-30T06:42:52.002Z,20.76
2022-07-30T06:44:53.952Z,20.88
2022-07-30T06:46:55.878Z,20.58
2022-07-30T06:48:57.793Z,20.71
2022-07-30T06:50:59.624Z,20.70
2022-07-30T06:53:01.625Z,20.77
2022-07-30T06:55:03.952Z,20.84
2022-07-30T06:57:05.675Z,21.04
2022-07-30T06:59:08.194Z,21.09
2022-07-30T07:01:11.377Z,20.95
2022-07-30T07:03:13.293Z,21.12
2022-07-30T07:05:15.202Z,20.88
2022-07-30T07:07:31.493Z,20.79
2022-07-30T07:09:38.867Z,20.92
2022-07-30T07:11:46.782Z,21.04
2022-07-30T07:13:48.666Z,21.06
2022-07-30T07:15:50.404Z,21.14
2022-07-30T07:17:52.579Z,21.21
2022-07-30T07:20:01.547Z,21.33
2022-07-30T07:22:04.144Z,21.20
2022-07-30T07:24:06.520Z,20.79
2022-07-30T07:26:08.344Z,21.21
2022-07-30T07:28:12.893Z,21.26
2022-07-30T07:30:16.340Z,21.41
2022-07-30T07:32:18.550Z,21.25
2022-07-30T07:34:20.275Z,21.22
2022-07-30T07:36:22.392Z,21.07
2022-07-30T07:38:24.385Z,21.38
2022-07-30T07:40:26.153Z,21.31
2022-07-30T07:42:28.164Z,21.15
2022-07-30T07:44:30.808Z,21.27
2022-07-30T07:46:34.366Z,21.52
2022-07-30T07:48:36.189Z,21.50
2022-07-30T07:50:38.638Z,21.27
2022-07-30T07:52:40.367Z,21.10
2022-07-30T07:54:42.342Z,20.94
2022-07-30T07:56:44.434Z,21.12
2022-07-30T07:58:47.750Z,21.21
2022-07-30T08:00:51.858Z,21.19
2022-07-30T08:02:53.791Z,21.49
2022-07-30T08:04:55.622Z,21.72
2022-07-30T08:06:57.434Z,21.77
2022-07-30T08:08:59.250Z,21.58
2022-07-30T08:11:00.995Z,21.59
2022-07-30T08:13:03.007Z,21.23
2022-07-30T08:15:05.380Z,21.38
2022-07-30T08:17:07.786Z,21.44
2022-07-30T08:19:10.158Z,21.31
2022-07-30T08:21:11.965Z,21.10
2022-07-30T08:23:13.707Z,21.50
2022-07-30T08:25:24.196Z,21.72
2022-07-30T08:27:26.582Z,21.84
2022-07-30T08:29:28.709Z,21.96
2022-07-30T08:31:30.656Z,21.75
2022-07-30T08:33:32.481Z,21.93
2022-07-30T08:35:34.235Z,21.94
2022-07-30T08:37:36.885Z,22.07
2022-07-30T08:39:38.612Z,22.01
2022-07-30T08:41:42.285Z,22.05
2022-07-30T08:43:45.604Z,22.02
2022-07-30T08:47:57.318Z,21.99
2022-07-30T08:49:59.993Z,22.00
2022-07-30T08:52:02.465Z,22.02
2022-07-30T08:54:05.118Z,21.84
2022-07-30T08:56:07.477Z,21.81
2022-07-30T08:58:35.458Z,21.66
2022-07-30T09:00:37.194Z,21.76
2022-07-30T09:02:39.000Z,21.81
2022-07-30T09:04:43.153Z,21.88
2022-07-30T09:06:45.711Z,21.82
2022-07-30T09:08:49.204Z,21.90
2022-07-30T09:10:57.102Z,21.94
2022-07-30T09:12:58.941Z,21.94
2022-07-30T09:15:05.574Z,22.02
2022-07-30T09:17:13.890Z,22.04
2022-07-30T09:19:18.068Z,22.10
2022-07-30T09:21:24.231Z,21.86
2022-07-30T09:23:26.106Z,21.91
2022-07-30T09:25:34.992Z,22.16
2022-07-30T09:27:47.460Z,21.93
2022-07-30T09:29:58.480Z,21.96
2022-07-30T09:32:06.522Z,21.95
2022-07-30T09:34:39.526Z,21.77
2022-07-30T09:36:41.317Z,21.77
2022-07-30T09:38:47.540Z,21.89
2022-07-30T09:40:57.576Z,22.00
2022-07-30T09:43:02.713Z,22.21
2022-07-30T09:45:08.829Z,22.33
2022-07-30T09:47:30.181Z,22.38
2022-07-30T09:49:31.934Z,22.49
2022-07-30T09:51:54.603Z,22.57
2022-07-30T09:54:00.385Z,22.47
2022-07-30T09:56:26.656Z,22.53
2022-07-30T09:58:39.069Z,22.36
2022-07-30T10:00:42.607Z,22.63
2022-07-30T10:02:44.467Z,22.19
2022-07-30T10:04:47.005Z,22.14
2022-07-30T10:06:48.874Z,22.11
2022-07-30T10:08:52.297Z,22.53
2022-07-30T10:10:54.116Z,22.55
2022-07-30T10:13:01.268Z,22.60
2022-07-30T10:15:07.763Z,22.34
2022-07-30T10:17:09.738Z,22.43
2022-07-30T10:19:18.076Z,22.50
2022-07-30T10:21:21.108Z,22.90
2022-07-30T10:23:29.201Z,22.79
2022-07-30T10:25:35.289Z,22.83
2022-07-30T10:27:39.128Z,22.97
2022-07-30T10:29:43.012Z,23.24
2022-07-30T10:31:47.434Z,23.35
2022-07-30T10:33:53.145Z,23.48
2022-07-30T10:35:56.730Z,23.52
2022-07-30T10:37:59.792Z,23.51
2022-07-30T10:40:20.113Z,23.72
2022-07-30T10:42:25.062Z,23.68
2022-07-30T10:44:41.796Z,23.73
2022-07-30T10:47:25.933Z,23.81
2022-07-30T10:49:35.257Z,23.50
2022-07-30T10:51:51.640Z,23.64
2022-07-30T10:53:54.274Z,23.83
2022-07-30T10:56:19.344Z,23.90
2022-07-30T10:58:27.640Z,23.60
2022-07-30T11:00:33.319Z,23.83
2022-07-30T11:02:35.745Z,23.88
2022-07-30T11:04:37.725Z,23.95
2022-07-30T11:06:39.486Z,23.92
2022-07-30T11:08:44.202Z,23.89
2022-07-30T11:10:46.043Z,24.10
2022-07-30T11:12:52.753Z,23.98
2022-07-30T11:14:58.180Z,23.71
2022-07-30T11:17:08.448Z,23.45
2022-07-30T11:19:55.047Z,23.47
2022-07-30T11:21:37.571Z,23.43
2022-07-30T11:23:40.396Z,23.49
2022-07-30T11:25:51.171Z,23.43
2022-07-30T11:27:54.167Z,23.66
2022-07-30T11:29:55.939Z,23.71
2022-07-30T11:31:58.822Z,23.75
2022-07-30T11:34:18.307Z,23.81
2022-07-30T11:36:20.492Z,23.77
2022-07-30T11:38:26.244Z,23.90
2022-07-30T11:40:36.345Z,23.59
2022-07-30T11:42:40.135Z,23.63
2022-07-30T11:44:41.927Z,23.76
2022-07-30T11:46:48.714Z,23.53
2022-07-30T11:49:04.279Z,23.69
2022-07-30T11:51:06.774Z,23.71
2022-07-30T11:53:17.282Z,23.68
2022-07-30T11:55:30.366Z,23.89
2022-07-30T11:57:44.578Z,23.80
2022-07-30T11:59:56.759Z,23.88
2022-07-30T12:01:59.223Z,24.00
2022-07-30T12:04:06.189Z,23.97
2022-07-30T12:06:11.388Z,24.07
2022-07-30T12:08:35.105Z,24.31
2022-07-30T12:10:36.146Z,24.35
2022-07-30T12:12:37.973Z,24.39
2022-07-30T12:14:39.746Z,24.40
2022-07-30T12:16:50.158Z,24.37
2022-07-30T12:18:52.692Z,24.12
2022-07-30T12:21:06.046Z,24.30
2022-07-30T12:23:15.418Z,24.09
2022-07-30T12:25:26.312Z,23.90
2022-07-30T12:27:28.156Z,23.77
2022-07-30T12:29:30.012Z,24.01
2022-07-30T12:31:32.234Z,24.00
2022-07-30T12:33:33.975Z,23.93
2022-07-30T12:35:52.918Z,23.95
2022-07-30T12:38:05.261Z,24.03
2022-07-30T12:40:14.990Z,23.75
2022-07-30T12:42:20.467Z,23.90
2022-07-30T12:44:37.259Z,23.86
2022-07-30T12:46:40.844Z,23.87
2022-07-30T12:48:53.860Z,23.69
2022-07-30T12:51:10.013Z,23.50
2022-07-30T12:53:11.865Z,23.40
2022-07-30T12:55:13.683Z,23.20
2022-07-30T12:57:15.436Z,23.36
2022-07-30T12:59:22.409Z,23.42
2022-07-30T13:01:43.375Z,23.21
2022-07-30T13:03:45.588Z,22.87
2022-07-30T13:05:49.843Z,23.09
2022-07-30T13:08:00.390Z,23.06
2022-07-30T13:10:10.473Z,22.98
2022-07-30T13:12:13.238Z,22.88
2022-07-30T13:14:15.030Z,23.01
2022-07-30T13:16:17.739Z,23.27
2022-07-30T13:18:19.544Z,23.42
2022-07-30T13:20:22.058Z,23.47
2022-07-30T13:22:23.866Z,23.65
2022-07-30T13:24:25.781Z,23.58
2022-07-30T13:26:27.667Z,23.40
2022-07-30T13:28:29.471Z,23.40
2022-07-30T13:30:31.305Z,23.36
2022-07-30T13:32:33.222Z,23.23
2022-07-30T13:34:34.956Z,23.14
2022-07-30T13:36:36.854Z,23.17
2022-07-30T13:38:38.702Z,23.23
2022-07-30T13:40:40.739Z,23.15
2022-07-30T13:42:42.664Z,22.74
2022-07-30T13:44:44.461Z,22.81
2022-07-30T13:46:48.483Z,22.77
2022-07-30T13:48:50.345Z,22.87
2022-07-30T13:50:52.301Z,22.65
2022-07-30T13:52:56.786Z,22.27
2022-07-30T13:55:04.149Z,21.83
2022-07-30T13:57:06.019Z,21.42
2022-07-30T13:59:07.962Z,21.21
2022-07-30T14:01:15.810Z,21.08
2022-07-30T14:03:20.712Z,20.88
2022-07-30T14:05:23.026Z,20.74
2022-07-30T14:07:24.906Z,20.65
2022-07-30T14:09:26.692Z,20.60
2022-07-30T14:11:28.444Z,20.58
2022-07-30T14:13:30.280Z,20.75
2022-07-30T14:15:32.111Z,20.78
2022-07-30T14:17:33.900Z,21.02
2022-07-30T14:19:35.702Z,21.15
2022-07-30T14:21:37.431Z,21.27
2022-07-30T14:23:39.558Z,21.31
2022-07-30T14:25:41.359Z,21.24
2022-07-30T14:27:43.175Z,21.31
2022-07-30T14:29:44.921Z,21.45
2022-07-30T14:31:46.826Z,21.48
2022-07-30T14:33:48.695Z,21.40
2022-07-30T14:35:50.429Z,21.40
2022-07-30T14:37:52.245Z,21.43
2022-07-30T14:39:54.072Z,21.49
2022-07-30T14:41:56.166Z,21.37
2022-07-30T14:43:58.002Z,21.38
2022-07-30T14:45:59.806Z,21.45
2022-07-30T14:48:02.390Z,21.49
2022-07-30T14:50:04.729Z,21.48
2022-07-30T14:52:06.657Z,21.54
2022-07-30T14:54:08.513Z,21.47
2022-07-30T14:56:10.306Z,21.55
2022-07-30T14:58:12.044Z,21.61
2022-07-30T15:00:14.226Z,21.66
2022-07-30T15:02:16.339Z,21.74
2022-07-30T15:04:18.096Z,21.74
2022-07-30T15:06:19.875Z,21.66
2022-07-30T15:08:21.673Z,21.64
2022-07-30T15:10:23.584Z,21.60
2022-07-30T15:12:27.385Z,21.62
2022-07-30T15:14:29.541Z,21.55
2022-07-30T15:16:31.469Z,21.47
2022-07-30T15:18:33.556Z,21.53
2022-07-30T15:20:35.482Z,21.44
2022-07-30T15:22:37.357Z,21.43
2022-07-30T15:24:39.113Z,21.48
2022-07-30T15:26:41.032Z,21.58
2022-07-30T15:28:43.012Z,21.60
2022-07-30T15:30:44.806Z,21.58
2022-07-30T15:32:46.582Z,21.59
2022-07-30T15:34:48.498Z,21.67
2022-07-30T15:36:50.243Z,21.55
2022-07-30T15:38:52.072Z,21.68
2022-07-30T15:40:53.954Z,21.59
2022-07-30T15:42:55.686Z,21.76
2022-07-30T15:45:15.938Z,21.66
2022-07-30T15:47:19.190Z,21.60
2022-07-30T15:49:21.146Z,21.76
2022-07-30T15:51:23.037Z,21.74
2022-07-30T15:53:24.976Z,21.52
2022-07-30T15:55:26.756Z,21.70
2022-07-30T15:57:28.617Z,21.59
2022-07-30T15:59:31.411Z,21.54
2022-07-30T16:01:34.354Z,21.55
2022-07-30T16:03:36.406Z,21.43
2022-07-30T16:05:51.673Z,21.46
2022-07-30T16:07:54.324Z,21.44
2022-07-30T16:09:56.425Z,21.38
2022-07-30T16:11:59.376Z,21.36
2022-07-30T16:14:01.260Z,21.15
2022-07-30T16:16:03.088Z,21.17
2022-07-30T16:18:05.097Z,21.14
2022-07-30T16:20:07.532Z,21.12
2022-07-30T16:22:09.450Z,21.13
2022-07-30T16:24:11.383Z,21.02
2022-07-30T16:26:13.138Z,20.83
2022-07-30T16:28:15.092Z,21.00
2022-07-30T16:30:17.124Z,20.92
2022-07-30T16:32:19.169Z,20.75
2022-07-30T16:34:26.635Z,20.86
2022-07-30T16:36:28.792Z,20.87
2022-07-30T16:38:30.556Z,20.89
2022-07-30T16:40:33.823Z,20.92
2022-07-30T16:42:35.544Z,20.88
2022-07-30T16:44:37.352Z,20.92
2022-07-30T16:46:39.275Z,20.95
2022-07-30T16:48:41.117Z,21.00
2022-07-30T16:50:43.243Z,20.85
2022-07-30T16:52:45.175Z,20.80
2022-07-30T16:54:47.441Z,20.86
2022-07-30T16:56:49.190Z,20.63
2022-07-30T16:58:51.013Z,20.67
2022-07-30T17:00:54.076Z,20.65
2022-07-30T17:02:55.815Z,20.61
2022-07-30T17:04:58.520Z,20.52
2022-07-30T17:07:00.628Z,20.52
2022-07-30T17:09:02.368Z,20.42
2022-07-30T17:11:09.371Z,20.17
2022-07-30T17:13:11.883Z,20.08
2022-07-30T17:15:13.632Z,19.90
2022-07-30T17:17:15.368Z,19.79
2022-07-30T17:19:17.346Z,19.81
2022-07-30T17:21:19.115Z,19.62
2022-07-30T17:23:20.955Z,19.59
2022-07-30T17:25:23.983Z,19.29
2022-07-30T17:27:26.087Z,19.47
2022-07-30T17:29:28.005Z,19.19
2022-07-30T17:31:29.822Z,19.33
2022-07-30T17:33:31.619Z,19.21
2022-07-30T17:35:34.083Z,19.06
2022-07-30T17:37:36.173Z,19.03
2022-07-30T17:40:28.621Z,18.95
2022-07-30T17:42:02.976Z,18.87
2022-07-30T17:44:05.380Z,18.71
2022-07-30T17:46:07.104Z,18.80
2022-07-30T17:48:09.185Z,18.78
2022-07-30T17:50:11.373Z,18.86
2022-07-30T17:52:13.384Z,18.69
2022-07-30T17:54:15.227Z,18.63
2022-07-30T17:56:27.031Z,18.87
2022-07-30T17:58:29.261Z,18.93
2022-07-30T18:00:31.255Z,18.67
2022-07-30T18:02:33.105Z,18.82
2022-07-30T18:04:35.305Z,18.89
2022-07-30T18:06:37.077Z,18.92
2022-07-30T18:08:38.778Z,18.90
2022-07-30T18:10:40.584Z,18.96
2022-07-30T18:12:48.979Z,18.95
2022-07-30T18:14:51.475Z,18.90
2022-07-30T18:16:53.208Z,18.81
2022-07-30T18:18:55.002Z,18.77
2022-07-30T18:20:56.923Z,18.69
2022-07-30T18:22:59.695Z,18.70
2022-07-30T18:25:01.574Z,18.63
2022-07-30T18:27:03.389Z,18.56
2022-07-30T18:29:08.839Z,18.48
2022-07-30T18:31:12.928Z,18.47
2022-07-30T18:33:15.211Z,18.34
2022-07-30T18:35:17.341Z,18.43
2022-07-30T18:37:19.284Z,18.40
2022-07-30T18:39:21.277Z,18.34
2022-07-30T18:41:23.061Z,18.30
2022-07-30T18:43:27.361Z,18.33
2022-07-30T18:45:30.362Z,18.13
2022-07-30T18:47:33.656Z,18.12
2022-07-30T18:49:37.564Z,18.08
2022-07-30T18:51:39.838Z,18.01
2022-07-30T18:53:42.366Z,17.82
2022-07-30T18:55:45.012Z,17.74
2022-07-30T18:57:47.556Z,17.68
2022-07-30T18:59:54.094Z,17.71
2022-07-30T19:01:57.118Z,17.70
2022-07-30T19:03:58.994Z,17.64
2022-07-30T19:06:00.889Z,17.61
2022-07-30T19:08:02.767Z,17.38
2022-07-30T19:10:06.473Z,17.53
2022-07-30T19:12:08.230Z,17.44
2022-07-30T19:14:10.935Z,17.38
2022-07-30T19:16:12.801Z,17.40
2022-07-30T19:18:14.801Z,17.36
2022-07-30T19:20:16.782Z,17.37
2022-07-30T19:22:18.601Z,17.38
2022-07-30T19:24:31.852Z,17.32
2022-07-30T19:26:33.799Z,17.39
2022-07-30T19:28:35.643Z,17.40
2022-07-30T19:30:40.252Z,17.32
2022-07-30T19:32:42.422Z,17.17
2022-07-30T19:34:44.252Z,17.18
2022-07-30T19:36:46.022Z,17.29
2022-07-30T19:38:48.635Z,17.23
2022-07-30T19:40:50.646Z,17.20
2022-07-30T19:42:55.611Z,17.11
2022-07-30T19:44:57.957Z,17.22
2022-07-30T19:47:03.150Z,17.01
2022-07-30T19:49:07.426Z,17.11
2022-07-30T19:51:20.523Z,17.16
2022-07-30T19:53:23.200Z,17.21
2022-07-30T19:55:35.426Z,17.22
2022-07-30T19:57:52.984Z,17.12
2022-07-30T20:00:00.230Z,17.15
2022-07-30T20:02:08.414Z,17.07
2022-07-30T20:04:11.929Z,17.11
2022-07-30T20:06:16.090Z,16.98
2022-07-30T20:08:18.295Z,17.07
2022-07-30T20:10:26.681Z,17.02
2022-07-30T20:12:31.284Z,16.94
2022-07-30T20:14:33.109Z,16.91
2022-07-30T20:16:35.499Z,17.04
2022-07-30T20:18:37.725Z,16.83
2022-07-30T20:20:39.503Z,17.00
2022-07-30T20:22:42.765Z,16.86
2022-07-30T20:24:45.737Z,17.06
2022-07-30T20:26:48.027Z,17.06
2022-07-30T20:28:52.410Z,17.04
2022-07-30T20:30:54.599Z,17.02
2022-07-30T20:33:01.620Z,17.02
2022-07-30T20:35:03.649Z,17.08
2022-07-30T20:37:16.601Z,17.04
2022-07-30T20:39:27.500Z,16.89
2022-07-30T20:41:29.866Z,16.87
2022-07-30T20:43:31.632Z,16.81
2022-07-30T20:45:40.474Z,16.95
2022-07-30T20:47:42.911Z,16.94
2022-07-30T20:49:49.310Z,16.82
2022-07-30T20:51:51.229Z,16.63
2022-07-30T20:53:53.752Z,16.70
2022-07-30T20:55:55.705Z,16.54
2022-07-30T20:58:07.016Z,16.54
2022-07-30T21:00:17.369Z,16.39
2022-07-30T21:02:26.935Z,16.51
2022-07-30T21:04:31.365Z,16.47
2022-07-30T21:06:34.746Z,16.37
2022-07-30T21:08:37.189Z,16.36
2022-07-30T21:10:39.414Z,16.41
2022-07-30T21:12:50.902Z,16.38
2022-07-30T21:14:55.481Z,16.47
2022-07-30T21:16:57.310Z,16.44
2022-07-30T21:18:59.708Z,16.38
2022-07-30T21:21:05.852Z,16.26
2022-07-30T21:23:10.423Z,16.42
2022-07-30T21:25:12.434Z,16.33
2022-07-30T21:27:14.252Z,16.26
2022-07-30T21:29:18.395Z,16.28
2022-07-30T21:31:51.053Z,16.32
2022-07-30T21:33:42.335Z,16.10
2022-07-30T21:35:44.117Z,16.09
2022-07-30T21:37:45.918Z,16.03
2022-07-30T21:39:47.774Z,16.06
2022-07-30T21:41:49.538Z,16.02
2022-07-30T21:43:51.358Z,16.05
2022-07-30T21:45:54.721Z,16.03
2022-07-30T21:47:57.322Z,15.96
2022-07-30T21:50:01.652Z,15.89
2022-07-30T21:52:05.327Z,15.90
2022-07-30T21:54:07.614Z,15.88
2022-07-30T21:56:10.989Z,15.85
2022-07-30T21:58:25.669Z,15.85
2022-07-30T22:01:00.904Z,15.87
2022-07-30T22:04:02.744Z,15.88
2022-07-30T22:05:40.871Z,15.79
2022-07-30T22:07:43.878Z,15.69
2022-07-30T22:09:45.787Z,15.50
2022-07-30T22:11:47.684Z,15.66
2022-07-30T22:13:53.465Z,15.67
2022-07-30T22:15:56.334Z,15.71
2022-07-30T22:18:00.778Z,15.72
2022-07-30T22:20:02.861Z,15.72
2022-07-30T22:22:05.347Z,15.78
2022-07-30T22:24:30.167Z,15.85
2022-07-30T22:26:32.719Z,15.76
2022-07-30T22:28:35.399Z,15.74
2022-07-30T22:30:39.531Z,15.66
2022-07-30T22:32:41.363Z,15.47
2022-07-30T22:34:44.993Z,15.50
2022-07-30T22:36:46.776Z,15.53
2022-07-30T22:38:58.482Z,15.52
2022-07-30T22:41:01.095Z,15.46
2022-07-30T22:43:08.011Z,15.48
2022-07-30T22:45:09.912Z,15.47
2022-07-30T22:47:18.927Z,15.37
2022-07-30T22:49:45.267Z,15.27
2022-07-30T22:52:03.760Z,15.44
2022-07-30T22:54:13.087Z,15.46
2022-07-30T22:56:15.716Z,15.45
2022-07-30T22:58:17.933Z,15.40
2022-07-30T23:00:28.074Z,15.51
2022-07-30T23:02:30.273Z,15.55
2022-07-30T23:04:32.087Z,15.50
2022-07-30T23:06:35.078Z,15.56
2022-07-30T23:08:36.796Z,15.56
2022-07-30T23:10:38.537Z,15.48
2022-07-30T23:12:42.321Z,15.48
2022-07-30T23:14:44.150Z,15.46
2022-07-30T23:16:50.087Z,15.43
2022-07-30T23:19:03.476Z,15.37
2022-07-30T23:21:05.278Z,15.41
2022-07-30T23:23:07.049Z,15.34
2022-07-30T23:25:10.643Z,15.35
2022-07-30T23:27:12.642Z,15.21
2022-07-30T23:29:15.870Z,15.17
2022-07-30T23:31:18.021Z,15.15
2022-07-30T23:33:19.758Z,15.27
2022-07-30T23:35:21.615Z,15.11
2022-07-30T23:37:23.738Z,15.26
2022-07-30T23:39:25.459Z,15.10
2022-07-30T23:41:30.020Z,15.30
2022-07-30T23:43:36.219Z,15.24
2022-07-30T23:45:37.932Z,15.28
2022-07-30T23:48:00.669Z,15.23
2022-07-30T23:50:02.159Z,15.25
2022-07-30T23:52:04.080Z,15.27
2022-07-30T23:54:05.841Z,15.27
2022-07-30T23:56:14.544Z,15.24
2022-07-30T23:58:17.153Z,15.28
